createdAt,value
2022-11-29T00:01:04.879Z,114.63
2022-11-29T00:03:33.106Z,114.50
2022-11-29T00:06:06.419Z,106.75
2022-11-29T00:08:34.478Z,114.07
2022-11-29T00:11:08.276Z,109.45
2022-11-29T00:13:36.905Z,109.15
2022-11-29T00:16:05.879Z,115.82
2022-11-29T00:18:34.111Z,110.80
2022-11-29T00:21:06.265Z,119.25
2022-11-29T00:23:34.515Z,115.32
2022-11-29T00:26:05.483Z,114.35
2022-11-29T00:28:35.991Z,113.13
2022-11-29T00:31:15.167Z,112.35
2022-11-29T00:33:43.249Z,116.57
2022-11-29T00:36:11.476Z,114.22
2022-11-29T00:38:39.853Z,121.32
2022-11-29T00:41:08.526Z,116.03
2022-11-29T00:43:38.318Z,123.72
2022-11-29T00:46:07.392Z,129.65
2022-11-29T00:48:35.705Z,130.80
2022-11-29T00:51:04.400Z,119.53
2022-11-29T00:53:33.180Z,116.35
2022-11-29T00:56:01.259Z,107.95
2022-11-29T00:58:29.373Z,116.07
2022-11-29T01:00:58.809Z,110.00
2022-11-29T01:03:27.124Z,101.20
2022-11-29T01:06:01.966Z,115.55
2022-11-29T01:08:30.075Z,107.43
2022-11-29T01:11:07.789Z,106.95
2022-11-29T01:13:36.572Z,119.20
2022-11-29T01:16:07.233Z,121.43
2022-11-29T01:18:35.570Z,127.47
2022-11-29T01:21:06.120Z,129.13
2022-11-29T01:23:35.087Z,118.65
2022-11-29T01:26:05.175Z,122.78
2022-11-29T01:28:33.161Z,114.93
2022-11-29T01:31:01.174Z,116.60
2022-11-29T01:33:30.591Z,114.22
2022-11-29T01:35:58.596Z,117.68
2022-11-29T01:38:26.661Z,114.90
2022-11-29T01:40:59.652Z,110.25
2022-11-29T01:43:28.238Z,114.50
2022-11-29T01:45:56.704Z,113.38
2022-11-29T01:48:26.988Z,117.70
2022-11-29T01:51:01.249Z,117.93
2022-11-29T01:53:30.056Z,106.03
2022-11-29T01:56:05.641Z,118.15
2022-11-29T01:58:34.469Z,119.85
2022-11-29T02:01:03.119Z,108.38
2022-11-29T02:03:31.127Z,115.72
2022-11-29T02:06:02.115Z,122.00
2022-11-29T02:08:37.595Z,107.22
2022-11-29T02:11:28.903Z,110.10
2022-11-29T02:14:05.514Z,105.55
2022-11-29T02:16:44.071Z,106.25
2022-11-29T02:19:28.364Z,105.40
2022-11-29T02:22:03.048Z,104.13
2022-11-29T02:24:56.621Z,118.20
2022-11-29T02:28:05.755Z,131.35
2022-11-29T02:31:05.113Z,121.28
2022-11-29T02:33:58.010Z,114.43
2022-11-29T02:36:44.254Z,111.13
2022-11-29T02:39:52.419Z,105.20
2022-11-29T02:43:05.354Z,118.10
2022-11-29T02:45:57.309Z,109.43
2022-11-29T02:48:44.794Z,108.82
2022-11-29T02:51:20.036Z,106.85
2022-11-29T02:53:55.046Z,108.60
2022-11-29T02:56:31.101Z,107.85
2022-11-29T02:59:06.393Z,102.03
2022-11-29T03:01:41.602Z,91.63
2022-11-29T03:04:18.937Z,90.40
2022-11-29T03:06:56.716Z,88.95
2022-11-29T03:09:34.696Z,84.05
2022-11-29T03:12:12.080Z,83.85
2022-11-29T03:14:55.679Z,90.93
2022-11-29T03:17:33.206Z,86.93
2022-11-29T03:20:28.004Z,91.70
2022-11-29T03:23:20.543Z,92.97
2022-11-29T03:25:56.071Z,98.22
2022-11-29T03:28:29.562Z,103.13
2022-11-29T03:31:05.409Z,115.35
2022-11-29T03:33:46.536Z,103.18
2022-11-29T03:36:26.942Z,107.38
2022-11-29T03:38:59.575Z,106.80
2022-11-29T03:41:34.280Z,99.07
2022-11-29T03:44:08.548Z,110.18
2022-11-29T03:46:41.737Z,95.15
2022-11-29T03:49:17.401Z,108.25
2022-11-29T03:52:01.884Z,100.32
2022-11-29T03:54:38.213Z,106.65
2022-11-29T03:57:07.545Z,99.93
2022-11-29T03:59:55.936Z,95.50
2022-11-29T04:03:14.534Z,97.30
2022-11-29T04:06:09.988Z,95.45
2022-11-29T04:08:57.328Z,106.00
2022-11-29T04:11:55.934Z,91.93
2022-11-29T04:14:44.199Z,97.95
2022-11-29T04:17:42.689Z,100.63
2022-11-29T04:20:47.877Z,96.22
2022-11-29T04:23:44.865Z,94.10
2022-11-29T04:26:39.033Z,105.18
2022-11-29T04:29:21.708Z,103.97
2022-11-29T04:32:18.340Z,108.85
2022-11-29T04:35:19.051Z,109.75
2022-11-29T04:38:09.290Z,96.78
2022-11-29T04:40:55.962Z,101.60
2022-11-29T04:43:46.537Z,94.82
2022-11-29T04:46:37.381Z,99.18
2022-11-29T04:49:33.929Z,110.10
2022-11-29T04:52:24.421Z,101.63
2022-11-29T04:55:01.390Z,100.00
2022-11-29T04:57:36.396Z,107.97
2022-11-29T05:00:10.379Z,109.32
2022-11-29T05:02:49.734Z,103.47
2022-11-29T05:05:28.879Z,101.60
2022-11-29T05:08:23.038Z,99.97
2022-11-29T05:11:00.990Z,100.63
2022-11-29T05:13:40.229Z,97.95
2022-11-29T05:16:20.395Z,98.95
2022-11-29T05:19:21.801Z,100.75
2022-11-29T05:22:02.454Z,87.03
2022-11-29T05:24:47.157Z,101.60
2022-11-29T05:27:24.411Z,104.40
2022-11-29T05:29:59.633Z,109.22
2022-11-29T05:32:36.011Z,98.13
2022-11-29T05:35:33.642Z,103.10
2022-11-29T05:38:09.577Z,101.10
2022-11-29T05:40:47.195Z,101.63
2022-11-29T05:43:57.642Z,96.82
2022-11-29T05:46:32.237Z,110.38
2022-11-29T05:49:09.573Z,123.65
2022-11-29T05:51:45.949Z,110.43
2022-11-29T05:54:25.975Z,105.30
2022-11-29T05:57:04.632Z,100.82
2022-11-29T05:59:35.526Z,100.20
2022-11-29T06:02:13.551Z,108.78
2022-11-29T06:04:56.120Z,103.55
2022-11-29T06:07:30.084Z,112.10
2022-11-29T06:10:02.242Z,99.80
2022-11-29T06:12:35.042Z,107.30
2022-11-29T06:15:25.579Z,108.90
2022-11-29T06:18:11.177Z,108.10
2022-11-29T06:21:04.463Z,110.32
2022-11-29T06:24:05.982Z,110.30
2022-11-29T06:26:46.213Z,110.57
2022-11-29T06:29:37.954Z,113.07
2022-11-29T06:32:18.209Z,105.70
2022-11-29T06:34:55.570Z,108.15
2022-11-29T06:37:29.051Z,101.28
2022-11-29T06:39:57.538Z,106.00
2022-11-29T06:42:25.695Z,100.47
2022-11-29T06:44:54.168Z,102.72
2022-11-29T06:47:29.235Z,107.30
2022-11-29T06:50:03.819Z,114.57
2022-11-29T06:52:44.758Z,118.43
2022-11-29T06:55:20.874Z,124.50
2022-11-29T06:58:02.480Z,172.98
2022-11-29T07:00:41.714Z,125.53
2022-11-29T07:03:42.167Z,125.32
2022-11-29T07:06:22.176Z,117.82
2022-11-29T07:08:57.569Z,128.85
2022-11-29T07:11:25.997Z,134.70
2022-11-29T07:13:54.683Z,118.40
2022-11-29T07:16:29.033Z,114.45
2022-11-29T07:19:06.261Z,96.90
2022-11-29T07:21:47.194Z,107.90
2022-11-29T07:24:33.990Z,100.95
2022-11-29T07:27:10.015Z,93.85
2022-11-29T07:29:48.938Z,87.22
2022-11-29T07:32:26.600Z,96.57
2022-11-29T07:35:04.937Z,92.85
2022-11-29T07:37:39.558Z,97.15
2022-11-29T07:40:16.468Z,103.20
2022-11-29T07:42:58.046Z,96.35
2022-11-29T07:45:29.495Z,97.43
2022-11-29T07:47:57.522Z,90.30
2022-11-29T07:50:27.220Z,102.75
2022-11-29T07:52:56.551Z,118.93
2022-11-29T07:55:27.626Z,98.93
2022-11-29T07:57:55.795Z,91.72
2022-11-29T08:00:24.384Z,83.95
2022-11-29T08:02:52.718Z,83.18
2022-11-29T08:05:20.856Z,80.65
2022-11-29T08:07:49.426Z,81.22
2022-11-29T08:10:18.285Z,84.45
2022-11-29T08:12:50.877Z,82.47
2022-11-29T08:15:19.857Z,91.18
2022-11-29T08:17:48.307Z,88.90
2022-11-29T08:20:17.532Z,86.07
2022-11-29T08:22:45.518Z,78.75
2022-11-29T08:25:13.767Z,80.47
2022-11-29T08:27:41.756Z,82.03
2022-11-29T08:30:11.961Z,82.22
2022-11-29T08:32:39.970Z,72.68
2022-11-29T08:35:08.368Z,77.20
2022-11-29T08:37:37.012Z,68.82
2022-11-29T08:40:05.477Z,71.75
2022-11-29T08:42:33.730Z,62.10
2022-11-29T08:45:01.774Z,64.68
2022-11-29T08:47:36.983Z,67.20
2022-11-29T08:50:10.175Z,64.80
2022-11-29T08:52:59.054Z,65.38
2022-11-29T08:55:29.327Z,69.53
2022-11-29T08:58:03.024Z,78.47
2022-11-29T09:00:31.135Z,81.20
2022-11-29T09:03:20.607Z,69.22
2022-11-29T09:05:48.992Z,61.15
2022-11-29T09:08:17.372Z,54.53
2022-11-29T09:10:45.686Z,51.85
2022-11-29T09:13:13.776Z,56.38
2022-11-29T09:15:43.639Z,56.72
2022-11-29T09:18:13.159Z,52.40
2022-11-29T09:20:43.930Z,51.58
2022-11-29T09:23:12.787Z,55.28
2022-11-29T09:25:40.847Z,57.45
2022-11-29T09:28:08.819Z,53.03
2022-11-29T09:30:38.157Z,52.15
2022-11-29T09:33:06.275Z,46.97
2022-11-29T09:35:36.049Z,44.70
2022-11-29T09:38:04.259Z,44.85
2022-11-29T09:40:38.673Z,51.88
2022-11-29T09:43:23.034Z,46.38
2022-11-29T09:45:57.296Z,45.97
2022-11-29T09:48:53.471Z,44.70
2022-11-29T09:51:29.445Z,45.45
2022-11-29T09:54:14.474Z,48.20
2022-11-29T09:56:45.454Z,39.08
2022-11-29T09:59:18.541Z,38.03
2022-11-29T10:01:53.183Z,38.17
2022-11-29T10:04:26.848Z,36.78
2022-11-29T10:07:03.013Z,36.55
2022-11-29T10:09:34.984Z,42.60
2022-11-29T10:12:12.904Z,35.20
2022-11-29T10:14:47.392Z,35.28
2022-11-29T10:17:27.458Z,33.75
2022-11-29T10:20:00.742Z,31.63
2022-11-29T10:22:39.557Z,32.28
2022-11-29T10:25:10.455Z,28.48
2022-11-29T10:27:41.663Z,30.23
2022-11-29T10:30:16.173Z,29.80
2022-11-29T10:32:46.627Z,39.08
2022-11-29T10:35:16.734Z,54.78
2022-11-29T10:38:07.628Z,27.67
2022-11-29T10:40:38.852Z,53.13
2022-11-29T10:43:06.987Z,34.70
2022-11-29T10:45:39.075Z,31.98
2022-11-29T10:48:11.816Z,53.38
2022-11-29T10:50:42.815Z,32.28
2022-11-29T10:53:14.893Z,32.45
2022-11-29T10:55:46.883Z,25.80
2022-11-29T10:58:22.074Z,31.05
2022-11-29T11:00:56.431Z,28.00
2022-11-29T11:03:32.302Z,28.52
2022-11-29T11:06:03.717Z,27.33
2022-11-29T11:08:35.008Z,26.30
2022-11-29T11:11:05.067Z,31.77
2022-11-29T11:13:34.095Z,27.65
2022-11-29T11:16:12.147Z,30.95
2022-11-29T11:18:40.285Z,28.02
2022-11-29T11:21:11.935Z,29.85
2022-11-29T11:23:47.945Z,24.73
2022-11-29T11:26:16.373Z,30.27
2022-11-29T11:28:50.829Z,27.13
2022-11-29T11:31:28.368Z,25.80
2022-11-29T11:33:57.184Z,45.97
2022-11-29T11:36:27.430Z,26.02
2022-11-29T11:38:59.595Z,39.58
2022-11-29T11:41:44.622Z,37.25
2022-11-29T11:44:46.739Z,30.48
2022-11-29T11:47:19.359Z,33.30
2022-11-29T11:49:50.185Z,24.15
2022-11-29T11:52:22.940Z,21.08
2022-11-29T11:54:57.174Z,25.08
2022-11-29T11:57:27.466Z,21.05
2022-11-29T12:00:00.716Z,30.10
2022-11-29T12:02:38.838Z,31.60
2022-11-29T12:05:14.449Z,25.20
2022-11-29T12:10:40.973Z,22.13
2022-11-29T12:13:19.406Z,22.85
2022-11-29T12:15:50.858Z,32.72
2022-11-29T12:18:25.937Z,24.98
2022-11-29T12:23:32.310Z,25.02
2022-11-29T12:26:05.763Z,25.77
2022-11-29T12:28:36.716Z,28.60
2022-11-29T12:31:17.544Z,39.63
2022-11-29T12:33:51.460Z,27.70
2022-11-29T12:36:30.177Z,44.25
2022-11-29T12:39:19.447Z,100.70
2022-11-29T12:41:54.474Z,148.07
2022-11-29T12:44:33.580Z,43.60
2022-11-29T12:50:08.573Z,22.35
2022-11-29T12:52:47.283Z,21.35
2022-11-29T12:55:24.288Z,20.08
2022-11-29T12:58:03.222Z,66.20
2022-11-29T13:00:44.283Z,621.05
2022-11-29T13:03:22.436Z,736.20
2022-11-29T13:05:58.809Z,194.57
2022-11-29T13:08:48.006Z,441.10
2022-11-29T13:11:23.091Z,196.25
2022-11-29T13:14:13.782Z,46.10
2022-11-29T13:16:53.695Z,48.17
2022-11-29T13:19:30.834Z,55.45
2022-11-29T13:22:07.532Z,64.93
2022-11-29T13:24:43.089Z,43.05
2022-11-29T13:27:17.114Z,33.33
2022-11-29T13:29:47.383Z,31.67
2022-11-29T13:32:30.906Z,29.77
2022-11-29T13:35:04.257Z,19.08
2022-11-29T13:37:36.973Z,17.20
2022-11-29T13:40:18.863Z,16.65
2022-11-29T13:42:53.468Z,17.80
2022-11-29T13:45:29.665Z,19.50
2022-11-29T13:48:00.415Z,22.92
2022-11-29T13:50:43.679Z,136.45
2022-11-29T13:53:17.714Z,25.10
2022-11-29T13:55:48.798Z,32.73
2022-11-29T13:58:38.231Z,31.35
2022-11-29T14:01:12.776Z,28.23
2022-11-29T14:03:42.412Z,25.83
2022-11-29T14:06:14.137Z,32.67
2022-11-29T14:09:22.439Z,26.02
2022-11-29T14:11:58.986Z,31.67
2022-11-29T14:14:31.470Z,31.70
2022-11-29T14:17:03.133Z,31.00
2022-11-29T14:19:34.170Z,34.92
2022-11-29T14:22:23.396Z,33.42
2022-11-29T14:25:50.476Z,32.70
2022-11-29T14:28:32.534Z,45.38
2022-11-29T14:31:02.554Z,33.85
2022-11-29T14:33:58.019Z,48.17
2022-11-29T14:36:39.568Z,38.13
2022-11-29T14:39:36.480Z,40.55
2022-11-29T14:42:14.797Z,48.22
2022-11-29T14:44:51.119Z,97.80
2022-11-29T14:47:29.787Z,107.90
2022-11-29T14:50:01.153Z,93.07
2022-11-29T14:52:34.760Z,89.13
2022-11-29T14:55:06.676Z,77.75
2022-11-29T14:57:53.833Z,64.10
2022-11-29T15:00:23.531Z,63.55
2022-11-29T15:02:54.540Z,61.03
2022-11-29T15:05:30.600Z,67.30
2022-11-29T15:08:09.468Z,60.10
2022-11-29T15:10:41.477Z,64.57
2022-11-29T15:13:13.264Z,71.55
2022-11-29T15:16:05.748Z,58.28
2022-11-29T15:19:07.138Z,68.28
2022-11-29T15:21:45.650Z,61.50
2022-11-29T15:24:15.273Z,54.65
2022-11-29T15:26:56.655Z,50.05
2022-11-29T15:29:25.387Z,52.58
2022-11-29T15:31:55.846Z,80.30
2022-11-29T15:34:31.618Z,66.63
2022-11-29T15:37:01.913Z,48.22
2022-11-29T15:39:33.979Z,51.13
2022-11-29T15:42:03.857Z,49.92
2022-11-29T15:44:33.837Z,52.42
2022-11-29T15:47:21.810Z,57.88
2022-11-29T15:49:49.973Z,72.00
2022-11-29T15:52:25.882Z,52.03
2022-11-29T15:54:58.191Z,51.67
2022-11-29T15:57:30.146Z,47.50
2022-11-29T16:00:02.279Z,44.25
2022-11-29T16:02:33.769Z,35.00
2022-11-29T16:05:09.703Z,38.92
2022-11-29T16:07:40.822Z,36.33
2022-11-29T16:10:15.832Z,31.85
2022-11-29T16:15:28.349Z,35.65
2022-11-29T16:17:56.517Z,37.80
2022-11-29T16:20:27.033Z,36.38
2022-11-29T16:23:20.065Z,52.28
2022-11-29T16:26:00.854Z,50.35
2022-11-29T16:28:32.860Z,90.88
2022-11-29T16:31:01.098Z,122.22
2022-11-29T16:33:29.419Z,126.82
2022-11-29T16:36:12.555Z,70.78
2022-11-29T16:38:47.782Z,42.97
2022-11-29T16:41:25.128Z,36.70
2022-11-29T16:43:56.211Z,33.88
2022-11-29T16:46:30.536Z,32.35
2022-11-29T16:49:00.842Z,35.53
2022-11-29T16:51:37.720Z,40.72
2022-11-29T16:54:24.743Z,42.97
2022-11-29T16:56:54.347Z,43.38
2022-11-29T16:59:27.200Z,38.97
2022-11-29T17:01:56.341Z,46.10
2022-11-29T17:04:25.319Z,104.03
2022-11-29T17:06:54.342Z,62.85
2022-11-29T17:09:26.818Z,40.92
2022-11-29T17:11:55.447Z,46.47
2022-11-29T17:14:23.596Z,39.53
2022-11-29T17:16:52.176Z,46.15
2022-11-29T17:19:23.851Z,42.17
2022-11-29T17:21:52.841Z,41.03
2022-11-29T17:24:22.826Z,50.05
2022-11-29T17:26:52.802Z,48.47
2022-11-29T17:29:20.904Z,49.58
2022-11-29T17:31:50.464Z,54.00
2022-11-29T17:34:18.923Z,45.17
2022-11-29T17:36:47.004Z,39.42
2022-11-29T17:39:15.845Z,38.00
2022-11-29T17:41:43.884Z,37.92
2022-11-29T17:44:13.900Z,38.72
2022-11-29T17:46:41.906Z,37.17
2022-11-29T17:49:11.315Z,38.05
2022-11-29T17:51:51.701Z,46.35
2022-11-29T17:54:20.974Z,51.58
2022-11-29T17:56:49.293Z,53.63
2022-11-29T17:59:18.767Z,53.00
2022-11-29T18:01:48.146Z,48.25
2022-11-29T18:04:16.693Z,42.60
2022-11-29T18:06:49.697Z,43.70
2022-11-29T18:09:19.455Z,43.67
2022-11-29T18:11:49.697Z,44.42
2022-11-29T18:14:22.770Z,43.97
2022-11-29T18:16:51.206Z,40.03
2022-11-29T18:19:23.040Z,38.85
2022-11-29T18:21:51.973Z,39.35
2022-11-29T18:24:20.239Z,37.80
2022-11-29T18:26:48.478Z,46.83
2022-11-29T18:29:16.619Z,41.42
2022-11-29T18:31:47.169Z,44.88
2022-11-29T18:34:15.823Z,49.35
2022-11-29T18:36:45.412Z,52.60
2022-11-29T18:39:15.836Z,53.78
2022-11-29T18:41:46.138Z,51.72
2022-11-29T18:44:15.863Z,48.58
2022-11-29T18:46:46.451Z,49.45
2022-11-29T18:49:15.875Z,48.78
2022-11-29T18:51:45.767Z,48.22
2022-11-29T18:54:14.899Z,45.38
2022-11-29T18:56:43.951Z,56.08
2022-11-29T18:59:14.353Z,78.65
2022-11-29T19:01:43.120Z,101.55
2022-11-29T19:04:14.834Z,102.55
2022-11-29T19:06:43.210Z,79.68
2022-11-29T19:09:14.496Z,56.78
2022-11-29T19:11:42.592Z,48.70
2022-11-29T19:14:13.106Z,67.57
2022-11-29T19:16:43.282Z,93.93
2022-11-29T19:19:13.169Z,66.32
2022-11-29T19:21:41.873Z,63.65
2022-11-29T19:24:15.123Z,70.50
2022-11-29T19:26:45.547Z,71.78
2022-11-29T19:29:14.361Z,60.17
2022-11-29T19:31:44.072Z,47.88
2022-11-29T19:34:13.560Z,49.58
2022-11-29T19:36:44.505Z,57.47
2022-11-29T19:39:14.059Z,63.15
2022-11-29T19:41:44.016Z,57.72
2022-11-29T19:44:12.618Z,55.80
2022-11-29T19:46:42.634Z,49.38
2022-11-29T19:49:11.215Z,49.35
2022-11-29T19:51:40.635Z,41.33
2022-11-29T19:54:10.255Z,40.53
2022-11-29T19:56:39.393Z,46.70
2022-11-29T19:59:08.772Z,45.60
2022-11-29T20:01:41.439Z,47.78
2022-11-29T20:04:12.288Z,49.95
2022-11-29T20:06:42.336Z,49.83
2022-11-29T20:09:10.800Z,42.50
2022-11-29T20:11:38.993Z,43.78
2022-11-29T20:14:08.886Z,47.25
2022-11-29T20:16:39.187Z,41.60
2022-11-29T20:19:11.020Z,46.40
2022-11-29T20:21:44.080Z,44.30
2022-11-29T20:24:14.476Z,47.75
2022-11-29T20:26:45.432Z,51.33
2022-11-29T20:29:14.830Z,51.83
2022-11-29T20:31:49.560Z,48.03
2022-11-29T20:34:19.060Z,52.90
2022-11-29T20:37:16.015Z,51.47
2022-11-29T20:39:51.120Z,50.50
2022-11-29T20:42:43.994Z,50.20
2022-11-29T20:45:14.004Z,52.25
2022-11-29T20:47:50.321Z,51.25
2022-11-29T20:50:23.232Z,51.03
2022-11-29T20:53:03.802Z,103.97
2022-11-29T20:55:31.891Z,79.28
2022-11-29T20:57:59.965Z,51.50
2022-11-29T21:00:28.025Z,55.35
2022-11-29T21:02:56.052Z,53.83
2022-11-29T21:05:24.077Z,53.88
2022-11-29T21:07:53.551Z,55.45
2022-11-29T21:10:22.042Z,57.92
2022-11-29T21:12:50.767Z,54.92
2022-11-29T21:15:19.851Z,54.63
2022-11-29T21:17:48.312Z,73.05
2022-11-29T21:20:19.670Z,64.57
2022-11-29T21:22:55.254Z,59.42
2022-11-29T21:25:32.594Z,54.05
2022-11-29T21:28:02.208Z,64.35
2022-11-29T21:30:30.547Z,60.67
2022-11-29T21:32:59.136Z,59.97
2022-11-29T21:35:27.356Z,56.55
2022-11-29T21:38:00.985Z,48.70
2022-11-29T21:40:29.537Z,51.25
2022-11-29T21:42:57.624Z,51.03
2022-11-29T21:45:25.750Z,53.55
2022-11-29T21:47:53.741Z,48.60
2022-11-29T21:50:21.775Z,51.13
2022-11-29T21:52:52.465Z,52.05
2022-11-29T21:55:21.920Z,53.10
2022-11-29T21:57:49.901Z,55.75
2022-11-29T22:00:18.878Z,54.17
2022-11-29T22:02:46.920Z,56.75
2022-11-29T22:05:15.094Z,64.95
2022-11-29T22:07:44.346Z,62.92
2022-11-29T22:10:13.600Z,61.25
2022-11-29T22:12:51.843Z,66.32
2022-11-29T22:15:24.767Z,66.63
2022-11-29T22:17:53.467Z,58.55
2022-11-29T22:20:21.657Z,50.63
2022-11-29T22:22:50.070Z,50.85
2022-11-29T22:25:18.186Z,50.35
2022-11-29T22:27:50.508Z,47.70
2022-11-29T22:30:19.070Z,49.33
2022-11-29T22:32:47.094Z,46.47
2022-11-29T22:35:15.276Z,49.50
2022-11-29T22:37:43.297Z,46.80
2022-11-29T22:40:11.979Z,49.92
2022-11-29T22:42:41.425Z,46.90
2022-11-29T22:45:11.950Z,52.33
2022-11-29T22:47:39.966Z,57.40
2022-11-29T22:50:08.727Z,58.83
2022-11-29T22:52:36.785Z,55.80
2022-11-29T22:55:05.461Z,59.58
2022-11-29T22:57:33.690Z,56.25
2022-11-29T23:00:01.725Z,54.35
2022-11-29T23:02:31.156Z,54.40
2022-11-29T23:04:59.277Z,54.25
2022-11-29T23:07:27.358Z,54.42
2022-11-29T23:09:56.262Z,53.42
2022-11-29T23:12:24.291Z,52.53
2022-11-29T23:14:56.387Z,57.08
2022-11-29T23:17:24.698Z,58.67
2022-11-29T23:19:54.212Z,58.25
2022-11-29T23:22:22.332Z,63.80
2022-11-29T23:24:50.389Z,58.13
2022-11-29T23:27:18.508Z,58.83
2022-11-29T23:29:46.601Z,56.03
2022-11-29T23:32:14.557Z,59.72
2022-11-29T23:34:42.544Z,56.30
2022-11-29T23:37:11.976Z,55.00
2022-11-29T23:39:40.039Z,50.28
2022-11-29T23:42:08.095Z,54.35
2022-11-29T23:44:36.177Z,52.60
2022-11-29T23:47:04.172Z,52.92
2022-11-29T23:49:35.344Z,56.08
2022-11-29T23:52:03.401Z,56.88
2022-11-29T23:54:32.838Z,55.17
2022-11-29T23:57:00.919Z,56.25
2022-11-29T23:59:29.019Z,55.10
